Time;durP1;ratioP1;P1;durP2;ratioP2;P2;SDS_P1;SDS_P2;PMS_P1;PMS_P2;Temp;Humidity;BMP_temperature;BMP_pressure;BME280_temperature;BME280_humidity;BME280_pressure;Samples;Min_cycle;Max_cycle;Signal;HPM_P1;HPM_P2
2024/03/12 00:01:08;;;;;;;2.90;1.00;;;;;;;2.27;47.43;100661.34;4801642;29;20145;-71
2024/03/12 00:03:35;;;;;;;1.65;0.90;;;;;;;2.44;47.41;100684.22;4808421;29;20525;-72
2024/03/12 00:06:03;;;;;;;1.15;0.98;;;;;;;2.14;47.75;100623.16;4798186;29;20061;-71
2024/03/12 00:08:29;;;;;;;1.85;0.90;;;;;;;2.41;47.45;100675.59;4782551;29;20058;-72
2024/03/12 00:10:56;;;;;;;1.70;1.00;;;;;;;1.99;47.28;100603.78;4769806;29;20084;-72
2024/03/12 00:13:23;;;;;;;2.60;1.10;;;;;;;1.94;47.45;100607.84;4786507;29;20055;-71
2024/03/12 00:15:50;;;;;;;0.80;0.70;;;;;;;2.03;47.21;100617.59;4797447;29;20043;-72
2024/03/12 00:18:16;;;;;;;3.22;0.95;;;;;;;2.36;46.77;100664.25;4781938;29;20069;-72
2024/03/12 00:20:45;;;;;;;1.02;0.80;;;;;;;2.26;47.25;100655.31;4798215;29;20088;-72
2024/03/12 00:23:11;;;;;;;1.50;0.98;;;;;;;1.87;47.38;100581.06;4799196;29;20038;-73
2024/03/12 00:25:39;;;;;;;2.15;0.88;;;;;;;2.21;47.38;100627.72;4799103;29;20173;-72
2024/03/12 00:28:08;;;;;;;4.47;1.05;;;;;;;2.56;47.57;100683.00;4795689;29;20053;-71
2024/03/12 00:30:34;;;;;;;3.50;1.05;;;;;;;2.43;46.98;100655.09;4782386;29;20138;-72
2024/03/12 00:33:01;;;;;;;1.77;1.00;;;;;;;2.19;47.06;100625.09;4797793;29;20137;-71
2024/03/12 00:35:32;;;;;;;1.77;1.00;;;;;;;2.56;47.24;100676.97;4785672;29;20047;-72
2024/03/12 00:37:59;;;;;;;1.42;0.98;;;;;;;2.22;47.44;100621.75;4798491;29;20157;-73
2024/03/12 00:40:36;;;;;;;1.00;0.73;;;;;;;2.08;47.34;100604.16;4801922;29;20039;-71
2024/03/12 00:43:05;;;;;;;1.50;0.90;;;;;;;2.40;47.16;100661.00;4782309;29;20129;-70
2024/03/12 00:45:41;;;;;;;3.28;0.80;;;;;;;2.41;47.38;100649.03;4800937;29;20059;-71
2024/03/12 00:48:09;;;;;;;1.75;0.88;;;;;;;2.23;47.41;100626.09;4784813;29;20058;-71
2024/03/12 00:50:37;;;;;;;2.20;1.30;;;;;;;2.54;46.92;100683.75;4784193;29;20049;-70
2024/03/12 00:53:03;;;;;;;1.98;1.00;;;;;;;2.55;47.29;100693.22;4799572;29;20075;-72
2024/03/12 00:55:30;;;;;;;1.95;0.88;;;;;;;2.45;47.03;100678.28;4784697;29;20077;-71
2024/03/12 00:57:57;;;;;;;1.60;0.80;;;;;;;2.51;47.40;100693.94;4800846;29;20050;-72
2024/03/12 01:00:26;;;;;;;1.45;0.88;;;;;;;2.11;47.28;100640.19;4771376;29;20131;-71
2024/03/12 01:02:54;;;;;;;1.88;0.90;;;;;;;2.33;47.19;100676.13;4771213;29;20598;-71
2024/03/12 01:05:26;;;;;;;2.03;0.98;;;;;;;2.47;47.28;100699.78;4810177;29;20644;-71
2024/03/12 01:07:58;;;;;;;1.13;0.70;;;;;;;2.39;47.33;100669.50;4815577;29;20053;-71
2024/03/12 01:10:28;;;;;;;2.92;0.90;;;;;;;2.34;47.33;100650.47;4812972;29;20516;-70
2024/03/12 01:12:57;;;;;;;0.88;0.77;;;;;;;2.43;47.21;100674.78;4784762;29;20544;-70
2024/03/12 01:15:24;;;;;;;1.42;0.75;;;;;;;2.01;46.93;100591.00;4784403;29;20383;-71
2024/03/12 01:17:56;;;;;;;1.85;1.00;;;;;;;2.06;47.22;100602.31;4795602;29;20058;-70
2024/03/12 01:20:27;;;;;;;3.25;1.00;;;;;;;2.57;47.01;100696.72;4790898;29;20043;-70
2024/03/12 01:22:54;;;;;;;3.60;0.88;;;;;;;2.45;47.11;100673.13;4796056;29;20039;-72
2024/03/12 01:25:22;;;;;;;1.90;0.82;;;;;;;2.39;47.42;100648.09;4790790;29;20078;-69
2024/03/12 01:27:52;;;;;;;1.30;0.90;;;;;;;2.32;47.05;100643.53;4786388;29;20049;-71
2024/03/12 01:30:20;;;;;;;1.20;0.90;;;;;;;2.34;47.07;100655.59;4799273;29;20055;-71
2024/03/12 01:32:47;;;;;;;2.25;0.95;;;;;;;2.49;47.16;100686.16;4785434;29;20047;-70
2024/03/12 01:35:13;;;;;;;2.35;1.00;;;;;;;2.40;47.52;100671.25;4798151;29;20385;-71
2024/03/12 01:37:45;;;;;;;1.90;0.93;;;;;;;2.23;47.66;100639.78;4794969;29;20502;-68
2024/03/12 01:40:19;;;;;;;1.73;0.70;;;;;;;2.10;47.51;100622.16;4784528;29;20047;-70
2024/03/12 01:42:51;;;;;;;2.70;0.95;;;;;;;2.44;47.15;100679.97;4785453;29;20058;-71
2024/03/12 01:45:20;;;;;;;2.78;1.20;;;;;;;2.43;47.16;100669.63;4796495;29;20088;-70
2024/03/12 01:47:47;;;;;;;3.65;1.00;;;;;;;2.52;47.32;100687.97;4813433;29;20426;-70
2024/03/12 01:50:15;;;;;;;2.47;0.95;;;;;;;2.21;47.25;100650.84;4795152;29;20070;-72
2024/03/12 01:52:43;;;;;;;0.88;0.70;;;;;;;2.49;47.67;100700.72;4799118;29;20499;-70
2024/03/12 01:55:18;;;;;;;1.27;0.80;;;;;;;2.51;47.15;100705.06;4783568;29;20140;-69
2024/03/12 01:57:45;;;;;;;1.52;0.80;;;;;;;2.31;47.16;100664.91;4796653;29;20058;-70
2024/03/12 02:00:17;;;;;;;1.10;0.88;;;;;;;2.09;47.42;100631.56;4795963;29;20080;-69
2024/03/12 02:02:45;;;;;;;;;;;;;;;2.46;47.17;100701.44;4790534;29;20043;-70
2024/03/12 02:05:12;;;;;;;1.65;0.80;;;;;;;2.32;47.36;100685.50;4794848;29;19924;-70
2024/03/12 02:07:45;;;;;;;4.47;0.90;;;;;;;2.40;47.71;100696.09;4796415;29;20529;-68
2024/03/12 02:10:14;;;;;;;1.65;1.00;;;;;;;2.29;47.34;100671.66;4797065;29;20079;-71
2024/03/12 02:12:43;;;;;;;1.90;1.05;;;;;;;2.30;47.05;100687.16;4796307;29;20143;-69
2024/03/12 02:15:09;;;;;;;1.83;1.02;;;;;;;2.31;47.45;100675.19;4782107;29;20046;-70
2024/03/12 02:17:36;;;;;;;3.05;0.95;;;;;;;2.44;47.31;100707.34;4799416;29;20570;-71
2024/03/12 02:20:03;;;;;;;3.70;1.02;;;;;;;2.23;47.43;100667.19;4780526;29;20133;-68
2024/03/12 02:22:31;;;;;;;1.05;0.70;;;;;;;2.28;47.06;100691.34;4795060;29;20047;-71
2024/03/12 02:25:00;;;;;;;2.20;1.15;;;;;;;2.27;46.94;100692.16;4795578;29;20078;-70
2024/03/12 02:27:26;;;;;;;3.55;1.00;;;;;;;1.79;47.95;100611.56;4798759;29;20043;-71
2024/03/12 02:29:53;;;;;;;0.98;0.77;;;;;;;2.29;47.47;100698.25;4799427;29;20130;-71
2024/03/12 02:32:19;;;;;;;1.67;1.02;;;;;;;2.21;47.69;100694.50;4794295;29;20051;-70
2024/03/12 02:34:45;;;;;;;2.72;1.00;;;;;;;2.11;47.64;100678.72;4783818;29;20047;-69
2024/03/12 02:37:11;;;;;;;2.13;1.00;;;;;;;2.31;47.34;100717.16;4794803;29;20073;-70
2024/03/12 02:39:37;;;;;;;0.85;0.70;;;;;;;2.33;47.57;100725.78;4795134;29;20054;-70
2024/03/12 02:42:04;;;;;;;3.42;1.02;;;;;;;2.16;47.62;100688.28;4781287;29;20042;-71
2024/03/12 02:44:30;;;;;;;1.60;1.00;;;;;;;2.13;47.92;100683.03;4796005;29;20069;-69
2024/03/12 02:46:56;;;;;;;3.10;1.10;;;;;;;2.02;47.72;100668.09;4769178;29;20050;-68
2024/03/12 02:49:23;;;;;;;2.13;1.08;;;;;;;1.86;47.46;100637.50;4768424;29;21092;-71
2024/03/12 02:51:49;;;;;;;1.27;0.82;;;;;;;2.17;47.43;100697.75;4795833;29;20553;-69
2024/03/12 02:54:17;;;;;;;2.25;1.20;;;;;;;2.14;47.47;100685.69;4794008;29;20043;-69
2024/03/12 02:56:43;;;;;;;2.67;1.00;;;;;;;1.95;47.86;100656.72;4768644;29;20107;-70
2024/03/12 02:59:12;;;;;;;1.60;1.10;;;;;;;2.33;47.51;100717.22;4783077;29;20078;-72
2024/03/12 03:01:39;;;;;;;2.50;1.23;;;;;;;2.10;47.80;100687.22;4798503;29;20468;-69
2024/03/12 03:04:05;;;;;;;2.95;1.38;;;;;;;2.33;47.50;100719.78;4798573;29;20062;-68
2024/03/12 03:06:31;;;;;;;2.38;1.02;;;;;;;2.34;47.62;100735.25;4768054;29;20055;-70
2024/03/12 03:09:00;;;;;;;2.38;1.17;;;;;;;2.18;47.71;100696.94;4784466;29;20075;-68
2024/03/12 03:11:26;;;;;;;3.03;1.02;;;;;;;2.32;48.00;100721.47;4795167;29;20047;-70
2024/03/12 03:13:53;;;;;;;2.05;1.05;;;;;;;2.09;47.97;100690.63;4811757;29;20050;-71
2024/03/12 03:16:22;;;;;;;2.05;1.20;;;;;;;1.97;47.65;100659.31;4800716;29;20065;-68
2024/03/12 03:18:48;;;;;;;1.92;1.40;;;;;;;2.37;48.07;100730.22;4802639;29;20046;-68
2024/03/12 03:21:15;;;;;;;1.77;1.10;;;;;;;1.85;47.62;100649.44;4786883;29;20137;-69
2024/03/12 03:23:42;;;;;;;3.22;1.17;;;;;;;2.26;47.53;100718.66;4801001;29;20039;-70
2024/03/12 03:26:08;;;;;;;3.55;1.20;;;;;;;2.08;47.93;100678.63;4786940;29;20058;-69
2024/03/12 03:28:35;;;;;;;3.80;1.48;;;;;;;2.30;47.51;100717.09;4772720;29;20042;-70
2024/03/12 03:31:01;;;;;;;2.78;1.17;;;;;;;2.29;47.66;100710.19;4801469;29;20108;-69
2024/03/12 03:33:28;;;;;;;2.05;1.10;;;;;;;2.47;47.77;100744.31;4771951;29;20419;-70
2024/03/12 03:35:54;;;;;;;4.68;1.15;;;;;;;2.10;48.27;100682.09;4801371;29;20494;-69
2024/03/12 03:38:21;;;;;;;2.85;1.17;;;;;;;2.39;47.48;100728.59;4813103;29;20735;-70
2024/03/12 03:40:47;;;;;;;4.18;1.42;;;;;;;2.36;47.80;100725.91;4797289;29;20413;-70
2024/03/12 03:43:14;;;;;;;10.77;5.53;;;;;;;2.32;47.84;100718.03;4786894;29;20111;-70
2024/03/12 03:45:40;;;;;;;3.60;1.40;;;;;;;2.30;47.61;100723.13;4798688;29;20104;-71
2024/03/12 03:48:07;;;;;;;2.15;1.50;;;;;;;2.36;48.09;100738.75;4829271;29;20141;-69
2024/03/12 03:50:33;;;;;;;3.92;1.15;;;;;;;2.44;47.66;100759.59;4828064;29;20127;-71
2024/03/12 03:52:59;;;;;;;3.97;1.10;;;;;;;2.23;47.89;100715.97;4786280;29;20096;-71
2024/03/12 03:55:25;;;;;;;1.73;1.10;;;;;;;1.75;47.68;100635.34;4800584;29;20454;-72
2024/03/12 03:57:51;;;;;;;1.90;1.27;;;;;;;2.48;48.17;100750.34;4786341;29;20124;-73
2024/03/12 04:00:23;;;;;;;3.20;1.50;;;;;;;1.82;47.69;100636.47;4771333;29;20403;-72
2024/03/12 04:02:50;;;;;;;4.22;1.10;;;;;;;2.02;48.09;100669.75;4785420;29;20130;-70
2024/03/12 04:05:16;;;;;;;2.63;1.42;;;;;;;2.48;47.73;100758.06;4801663;29;20525;-71
2024/03/12 04:07:44;;;;;;;1.23;1.10;;;;;;;2.26;47.77;100728.94;4799614;29;20141;-70
2024/03/12 04:10:11;;;;;;;3.00;1.33;;;;;;;2.49;47.97;100775.22;4770332;29;20046;-70
2024/03/12 04:12:39;;;;;;;3.17;1.30;;;;;;;2.55;48.12;100773.78;4812175;29;20204;-70
2024/03/12 04:15:06;;;;;;;2.17;1.40;;;;;;;2.46;47.66;100744.25;4782686;29;20150;-71
2024/03/12 04:17:32;;;;;;;3.53;1.58;;;;;;;2.47;48.32;100751.16;4801548;29;20042;-70
2024/03/12 04:19:58;;;;;;;2.97;1.30;;;;;;;2.61;48.05;100774.84;4784612;29;20219;-71
2024/03/12 04:22:25;;;;;;;4.97;1.52;;;;;;;2.43;47.80;100750.13;4812650;29;20057;-71
2024/03/12 04:24:52;;;;;;;3.08;1.40;;;;;;;2.46;48.06;100751.97;4792384;29;20055;-74
2024/03/12 04:27:21;;;;;;;2.95;1.35;;;;;;;2.66;47.96;100787.03;4797071;29;20055;-72
2024/03/12 04:29:47;;;;;;;2.33;1.27;;;;;;;2.70;47.68;100783.78;4795475;29;20043;-72
2024/03/12 04:32:15;;;;;;;1.65;1.15;;;;;;;2.70;48.11;100772.59;4798766;29;20051;-72
2024/03/12 04:34:41;;;;;;;2.13;1.48;;;;;;;2.76;47.84;100792.56;4778752;29;20893;-72
2024/03/12 04:37:07;;;;;;;5.10;1.40;;;;;;;2.60;47.61;100766.22;4783733;29;20450;-71
2024/03/12 04:39:33;;;;;;;3.22;1.63;;;;;;;2.22;47.52;100702.25;4801380;29;20062;-71
2024/03/12 04:42:02;;;;;;;11.00;1.90;;;;;;;2.83;47.94;100799.66;4798229;29;20197;-76
2024/03/12 04:44:29;;;;;;;3.75;1.48;;;;;;;2.81;47.83;100802.19;4785544;29;20085;-71
2024/03/12 04:46:55;;;;;;;22.42;2.03;;;;;;;2.88;47.81;100810.13;4798266;29;20088;-72
2024/03/12 04:49:21;;;;;;;4.63;1.70;;;;;;;2.94;47.66;100813.81;4783075;29;20043;-69
2024/03/12 04:51:47;;;;;;;3.22;1.63;;;;;;;2.82;47.48;100780.81;4800215;29;20058;-70
2024/03/12 04:54:13;;;;;;;3.05;1.40;;;;;;;2.95;47.72;100791.53;4785509;29;20081;-72
2024/03/12 04:56:39;;;;;;;8.40;1.75;;;;;;;2.66;47.86;100739.88;4785726;29;20093;-71
2024/03/12 04:59:05;;;;;;;3.55;1.92;;;;;;;3.12;47.75;100817.91;4800707;29;20038;-70
2024/03/12 05:01:31;;;;;;;4.13;1.52;;;;;;;3.10;47.56;100816.97;4782562;29;20049;-73
2024/03/12 05:03:57;;;;;;;3.75;2.03;;;;;;;2.99;47.32;100799.41;4796741;29;20039;-70
2024/03/12 05:06:23;;;;;;;2.95;1.85;;;;;;;3.17;47.44;100812.09;4777778;29;20058;-70
2024/03/12 05:08:49;;;;;;;5.38;1.90;;;;;;;3.14;47.29;100801.69;4784033;29;20145;-70
2024/03/12 05:11:15;;;;;;;2.90;1.40;;;;;;;2.67;46.94;100714.25;4797652;29;20046;-71
2024/03/12 05:13:41;;;;;;;2.53;1.70;;;;;;;3.34;47.18;100819.56;4811288;29;20046;-70
2024/03/12 05:16:07;;;;;;;3.17;1.67;;;;;;;3.31;47.25;100807.47;4794644;29;20142;-71
2024/03/12 05:18:33;;;;;;;3.50;1.60;;;;;;;3.33;46.82;100811.81;4783039;29;20042;-70
2024/03/12 05:21:01;;;;;;;2.28;1.52;;;;;;;3.13;47.42;100789.66;4825504;29;20054;-69
2024/03/12 05:23:28;;;;;;;4.60;1.75;;;;;;;3.14;47.41;100793.13;4812277;29;20044;-70
2024/03/12 05:25:54;;;;;;;4.15;1.80;;;;;;;3.06;47.32;100753.38;4798204;29;20519;-71
2024/03/12 05:28:20;;;;;;;4.25;1.77;;;;;;;3.43;47.30;100819.91;4783783;29;20074;-70
2024/03/12 05:30:49;;;;;;;4.07;1.80;;;;;;;3.42;46.92;100809.59;4785743;29;20082;-70
2024/03/12 05:33:15;;;;;;;5.45;1.73;;;;;;;3.61;47.35;100830.00;4783138;29;20043;-71
2024/03/12 05:35:47;;;;;;;4.50;1.75;;;;;;;3.61;47.28;100834.28;4763176;29;20043;-71
2024/03/12 05:38:33;;;;;;;3.38;1.70;;;;;;;3.24;46.70;100746.31;4769333;29;20098;-69
2024/03/12 05:49:14;;;;;;;5.65;1.90;;;;;;;4.28;47.04;100834.00;4811001;29;20535;-70
2024/03/12 05:51:40;;;;;;;4.05;1.88;;;;;;;4.36;46.69;100823.13;4800099;29;20099;-71
2024/03/12 05:54:06;;;;;;;3.00;1.90;;;;;;;4.39;46.66;100822.31;4795763;29;20541;-70
2024/03/12 05:56:33;;;;;;;3.75;2.13;;;;;;;4.51;46.39;100835.63;4784634;29;20062;-70
2024/03/12 05:58:59;;;;;;;4.68;1.80;;;;;;;3.99;45.98;100712.81;4769946;29;20053;-71
2024/03/12 06:01:26;;;;;;;3.60;1.55;;;;;;;4.30;45.80;100755.03;4785466;29;20039;-71
2024/03/12 06:03:52;;;;;;;4.50;1.83;;;;;;;4.52;46.08;100783.22;4794959;29;20417;-70
2024/03/12 06:06:18;;;;;;;4.38;1.80;;;;;;;4.94;45.70;100827.50;4781143;29;20181;-71
2024/03/12 06:08:44;;;;;;;3.80;2.00;;;;;;;5.04;45.43;100837.25;4796826;29;20151;-70
2024/03/12 06:11:15;;;;;;;2.45;1.60;;;;;;;5.05;45.53;100826.09;4796650;29;20111;-71
2024/03/12 06:13:43;;;;;;;5.63;1.80;;;;;;;4.67;45.18;100735.56;4784749;29;20043;-70
2024/03/12 06:16:09;;;;;;;3.22;1.60;;;;;;;5.47;44.67;100847.09;4769465;29;20058;-70
2024/03/12 06:18:35;;;;;;;2.97;1.65;;;;;;;5.03;44.75;100789.06;4769881;29;20074;-72
2024/03/12 06:21:01;;;;;;;3.65;1.80;;;;;;;5.52;44.98;100848.09;4798223;29;20137;-70
2024/03/12 06:23:27;;;;;;;4.35;1.60;;;;;;;5.33;44.87;100782.16;4772108;29;20053;-70
2024/03/12 06:25:54;;;;;;;3.25;1.58;;;;;;;5.86;45.19;100851.59;4799739;29;20058;-70
2024/03/12 06:28:25;;;;;;;3.83;1.50;;;;;;;5.47;44.58;100778.28;4811241;29;20047;-72
2024/03/12 06:30:52;;;;;;;3.45;1.90;;;;;;;6.00;44.11;100826.19;4794362;29;20073;-71
2024/03/12 06:33:18;;;;;;;4.38;1.60;;;;;;;6.03;44.64;100834.91;4770005;29;20510;-71
2024/03/12 06:35:48;;;;;;;3.10;1.90;;;;;;;5.71;44.17;100766.84;4783909;29;20482;-71
2024/03/12 06:38:15;;;;;;;7.63;1.90;;;;;;;6.33;44.48;100817.53;4800021;29;20422;-71
2024/03/12 06:40:43;;;;;;;5.90;1.83;;;;;;;6.69;43.53;100854.63;4809327;29;20047;-70
2024/03/12 06:43:13;;;;;;;2.40;1.77;;;;;;;6.67;43.49;100827.84;4796814;29;20078;-72
2024/03/12 06:45:40;;;;;;;7.00;2.28;;;;;;;6.83;43.19;100829.94;4794559;29;20065;-72
2024/03/12 06:48:07;;;;;;;3.92;1.90;;;;;;;7.02;43.18;100843.28;4811498;29;20115;-70
2024/03/12 06:50:33;;;;;;;3.10;1.92;;;;;;;7.02;43.04;100827.75;4797540;29;20058;-71
2024/03/12 06:53:00;;;;;;;3.05;1.73;;;;;;;6.86;42.95;100819.66;4802093;29;20054;-71
2024/03/12 06:55:27;;;;;;;3.05;2.33;;;;;;;6.98;42.45;100844.03;4803582;29;20042;-72
2024/03/12 06:58:04;;;;;;;2.78;1.83;;;;;;;6.75;42.66;100801.31;4802161;29;20490;-72
2024/03/12 07:00:37;;;;;;;6.90;2.15;;;;;;;6.95;42.37;100851.75;4798470;29;20414;-72
2024/03/12 07:03:04;;;;;;;5.47;1.90;;;;;;;6.74;42.42;100829.69;4809259;29;20047;-72
2024/03/12 07:05:36;;;;;;;3.72;1.60;;;;;;;6.69;42.78;100798.56;4783854;29;20043;-71
2024/03/12 07:08:05;;;;;;;;;;;;;;;7.22;42.44;100844.59;4813863;29;20145;-71
2024/03/12 07:10:32;;;;;;;3.72;1.67;;;;;;;7.41;42.26;100854.47;4785493;29;19921;-70
2024/03/12 07:13:00;;;;;;;4.55;1.73;;;;;;;7.00;41.79;100767.31;4772438;29;20109;-69
2024/03/12 07:15:28;;;;;;;2.90;1.80;;;;;;;7.59;41.70;100822.91;4785591;29;20057;-70
2024/03/12 07:17:54;;;;;;;4.35;1.77;;;;;;;7.89;41.76;100864.06;4798324;29;20043;-71
2024/03/12 07:20:21;;;;;;;5.70;2.20;;;;;;;7.96;41.22;100867.66;4799477;29;20050;-69
2024/03/12 07:22:48;;;;;;;4.13;2.03;;;;;;;7.60;40.83;100799.59;4786284;29;20192;-68
2024/03/12 07:25:17;;;;;;;9.07;4.72;;;;;;;7.91;40.95;100841.66;4786874;29;20071;-69
2024/03/12 07:27:43;;;;;;;11.05;4.57;;;;;;;8.11;40.82;100847.19;4764400;29;20096;-63
2024/03/12 07:30:10;;;;;;;9.00;5.07;;;;;;;8.41;40.63;100860.66;4797920;29;20046;-65
2024/03/12 07:32:37;;;;;;;5.45;2.90;;;;;;;8.32;40.67;100796.53;4799362;29;20047;-65
2024/03/12 07:35:04;;;;;;;9.23;4.22;;;;;;;8.92;40.29;100851.13;4794181;29;20055;-68
2024/03/12 07:37:36;;;;;;;8.38;4.00;;;;;;;9.06;39.84;100846.09;4784517;29;20043;-64
2024/03/12 07:40:03;;;;;;;5.95;3.60;;;;;;;9.13;39.69;100819.38;4785836;29;20046;-65
2024/03/12 07:42:30;;;;;;;7.93;4.28;;;;;;;9.57;39.44;100854.59;4795222;29;20046;-65
2024/03/12 07:44:57;;;;;;;2.53;2.05;;;;;;;10.00;39.33;100853.31;4795511;29;20078;-65
2024/03/12 07:47:24;;;;;;;8.05;3.42;;;;;;;10.30;39.39;100818.94;4793379;29;20051;-65
2024/03/12 07:49:53;;;;;;;11.20;4.05;;;;;;;11.23;38.68;100847.34;4794626;29;20149;-63
2024/03/12 07:52:19;;;;;;;7.75;2.33;;;;;;;11.69;37.56;100826.69;4794242;29;20518;-66
2024/03/12 07:54:45;;;;;;;6.00;3.90;;;;;;;12.54;37.00;100840.75;4791569;29;20053;-66
2024/03/12 07:57:11;;;;;;;7.75;3.20;;;;;;;13.41;36.51;100846.66;4780449;29;20038;-63
2024/03/12 07:59:37;;;;;;;6.22;2.20;;;;;;;13.78;35.38;100809.88;4779635;29;20035;-64
2024/03/12 08:02:11;;;;;;;2.72;2.08;;;;;;;14.65;34.66;100827.56;4793877;29;20092;-64
2024/03/12 08:04:42;;;;;;;4.72;2.17;;;;;;;15.27;34.65;100831.28;4782667;29;20035;-67
2024/03/12 08:07:12;;;;;;;4.32;1.98;;;;;;;16.47;33.76;100814.72;4795791;29;20046;-64
2024/03/12 08:09:38;;;;;;;6.47;2.35;;;;;;;17.86;32.02;100829.53;4778619;29;20591;-65
2024/03/12 08:12:04;;;;;;;4.90;2.15;;;;;;;19.18;31.17;100827.13;4782901;29;20079;-63
2024/03/12 08:14:31;;;;;;;3.42;2.03;;;;;;;20.58;30.04;100812.25;4794007;29;20047;-63
2024/03/12 08:16:57;;;;;;;4.55;2.30;;;;;;;22.66;29.43;100809.56;4795456;29;20054;-64
2024/03/12 08:19:26;;;;;;;2.28;1.90;;;;;;;23.79;27.34;100812.44;4782113;29;20489;-63
2024/03/12 08:21:52;;;;;;;3.97;2.45;;;;;;;22.87;25.80;100800.66;4792393;29;20501;-66
2024/03/12 08:24:19;;;;;;;8.30;2.45;;;;;;;21.22;25.37;100824.09;4763566;29;20035;-66
2024/03/12 08:26:47;;;;;;;3.63;2.35;;;;;;;19.48;25.89;100821.84;4798029;29;20051;-65
2024/03/12 08:29:16;;;;;;;4.15;2.30;;;;;;;19.63;27.02;100825.81;4796101;29;20042;-67
2024/03/12 08:31:42;;;;;;;2.88;2.08;;;;;;;20.26;26.05;100819.47;4810069;29;20519;-69
2024/03/12 08:34:13;;;;;;;7.45;2.85;;;;;;;19.78;25.73;100820.97;4823517;29;20079;-65
2024/03/12 08:36:39;;;;;;;3.95;2.05;;;;;;;21.04;26.39;100810.63;4779115;29;20073;-64
2024/03/12 08:39:05;;;;;;;6.13;2.42;;;;;;;21.47;25.01;100809.94;4781984;29;21911;-67
2024/03/12 08:41:32;;;;;;;3.03;2.20;;;;;;;20.64;24.66;100816.44;4797231;29;20042;-66
2024/03/12 08:43:59;;;;;;;3.60;2.35;;;;;;;19.28;24.78;100817.16;4793313;29;20808;-66
2024/03/12 08:46:25;;;;;;;9.55;2.30;;;;;;;20.73;25.88;100813.50;4794123;29;20503;-66
2024/03/12 08:48:52;;;;;;;4.28;2.00;;;;;;;21.94;23.81;100816.94;4782633;29;20053;-66
2024/03/12 08:51:19;;;;;;;3.25;2.00;;;;;;;21.04;23.54;100805.34;4793000;29;20420;-66
2024/03/12 08:53:46;;;;;;;5.47;2.03;;;;;;;19.99;23.75;100822.97;4780320;29;20382;-65
2024/03/12 08:56:12;;;;;;;3.55;1.80;;;;;;;18.73;24.06;100820.41;4796486;29;20153;-64
2024/03/12 08:58:38;;;;;;;5.18;2.17;;;;;;;17.59;24.20;100787.13;4795463;29;20059;-64
2024/03/12 09:01:04;;;;;;;3.90;2.05;;;;;;;16.73;24.60;100809.00;4778635;29;20515;-65
2024/03/12 09:03:30;;;;;;;7.50;2.63;;;;;;;15.89;24.86;100847.13;4793406;29;20137;-65
2024/03/12 09:05:59;;;;;;;4.45;2.50;;;;;;;15.35;25.69;100843.41;4795269;29;20494;-65
2024/03/12 09:08:25;;;;;;;4.65;2.28;;;;;;;14.92;25.97;100820.31;4823487;29;20047;-64
2024/03/12 09:10:52;;;;;;;4.38;2.42;;;;;;;14.70;26.52;100809.19;4796864;29;20050;-64
2024/03/12 09:13:21;;;;;;;17.52;2.83;;;;;;;16.27;27.08;100832.53;4798676;29;20055;-65
2024/03/12 09:15:51;;;;;;;4.90;2.60;;;;;;;19.25;27.43;100817.25;4791397;29;20259;-64
2024/03/12 09:18:21;;;;;;;5.03;2.10;;;;;;;22.40;25.94;100792.97;4792275;29;20521;-66
2024/03/12 09:20:48;;;;;;;2.85;2.08;;;;;;;24.99;24.51;100761.25;4777870;29;20073;-64
2024/03/12 09:23:14;;;;;;;1.85;1.73;;;;;;;26.65;23.26;100799.81;4807022;29;20050;-67
2024/03/12 09:25:45;;;;;;;3.00;1.80;;;;;;;28.22;22.05;100780.97;4796454;29;20775;-66
2024/03/12 09:28:11;;;;;;;3.33;1.83;;;;;;;29.70;21.00;100797.44;4788711;29;20042;-66
2024/03/12 09:30:38;;;;;;;4.03;1.80;;;;;;;30.74;20.27;100792.34;4792117;29;20051;-67
2024/03/12 09:33:04;;;;;;;3.17;1.83;;;;;;;31.24;19.21;100768.63;4793242;29;20115;-65
2024/03/12 09:35:30;;;;;;;2.28;1.90;;;;;;;29.29;18.09;100783.41;4792646;29;20185;-66
2024/03/12 09:37:56;;;;;;;7.75;4.70;;;;;;;29.57;18.98;100782.25;4767348;29;20050;-68
2024/03/12 09:40:23;;;;;;;5.57;3.78;;;;;;;30.97;18.33;100778.91;4776887;29;20059;-65
2024/03/12 09:42:51;;;;;;;6.45;3.65;;;;;;;32.32;18.07;100782.25;4793321;29;20046;-67
2024/03/12 09:45:18;;;;;;;4.10;2.30;;;;;;;31.79;16.55;100788.44;4776987;29;20059;-67
2024/03/12 09:47:46;;;;;;;2.72;1.90;;;;;;;29.36;16.92;100791.88;4774645;29;20053;-64
2024/03/12 09:50:16;;;;;;;2.58;2.03;;;;;;;28.91;17.63;100789.69;4778586;29;20069;-66
2024/03/12 09:52:46;;;;;;;2.20;2.00;;;;;;;29.40;17.16;100783.50;4764777;29;20148;-65
2024/03/12 09:55:15;;;;;;;2.92;2.22;;;;;;;29.68;17.28;100781.47;4780261;29;20569;-66
2024/03/12 09:57:47;;;;;;;3.42;1.90;;;;;;;30.78;17.39;100761.59;4792658;29;20132;-67
2024/03/12 10:00:22;;;;;;;3.13;2.20;;;;;;;31.70;16.50;100785.53;4792196;29;20047;-68
2024/03/12 10:02:49;;;;;;;3.67;1.90;;;;;;;32.29;16.53;100747.50;4777205;29;20054;-68
2024/03/12 10:05:22;;;;;;;3.15;1.67;;;;;;;33.00;15.98;100768.25;4792182;29;20167;-66
2024/03/12 10:08:06;;;;;;;2.10;1.80;;;;;;;33.64;15.88;100778.78;4790560;29;20136;-67
2024/03/12 10:10:39;;;;;;;1.95;1.75;;;;;;;34.31;15.33;100760.00;4790721;29;20051;-68
2024/03/12 10:13:08;;;;;;;4.57;1.92;;;;;;;34.39;14.88;100757.44;4796388;29;20046;-68
2024/03/12 10:15:36;;;;;;;3.22;2.13;;;;;;;34.47;15.25;100766.69;4779691;29;20050;-65
2024/03/12 10:18:06;;;;;;;2.22;2.03;;;;;;;33.88;14.48;100774.81;4802569;29;20127;-67
2024/03/12 10:20:48;;;;;;;5.22;2.20;;;;;;;32.03;14.35;100779.28;4793008;29;20047;-66
2024/03/12 10:23:16;;;;;;;3.92;1.75;;;;;;;29.15;14.86;100753.13;4802912;29;20108;-67
2024/03/12 10:25:44;;;;;;;3.15;1.60;;;;;;;26.74;15.25;100762.75;4793833;29;20467;-66
2024/03/12 10:28:14;;;;;;;4.65;2.00;;;;;;;24.50;16.43;100728.28;4795711;29;20100;-81
2024/03/12 10:30:41;;;;;;;3.05;1.83;;;;;;;23.25;16.91;100769.84;4797139;29;20085;-78
2024/03/12 10:33:13;;;;;;;4.35;2.50;;;;;;;21.43;17.98;100687.41;4816463;29;20047;-81
2024/03/12 10:35:44;;;;;;;3.75;1.80;;;;;;;20.60;18.41;100731.94;4764726;29;20468;-79
2024/03/12 10:38:24;;;;;;;3.00;1.80;;;;;;;19.74;18.99;100771.81;4784764;29;20058;-77
2024/03/12 10:40:55;;;;;;;4.07;2.00;;;;;;;18.80;19.74;100776.28;4800805;29;20043;-81
2024/03/12 10:43:24;;;;;;;3.15;2.00;;;;;;;17.48;20.54;100697.91;4787265;29;20054;-78
2024/03/12 10:45:56;;;;;;;4.45;2.08;;;;;;;16.51;20.70;100706.06;4803787;29;20103;-79
2024/03/12 10:48:25;;;;;;;3.78;2.35;;;;;;;15.50;21.51;100689.38;4779136;29;20096;-80
2024/03/12 10:50:56;;;;;;;5.35;2.42;;;;;;;14.51;22.32;100633.00;4783524;29;20042;-76
2024/03/12 10:53:24;;;;;;;5.97;2.85;;;;;;;14.95;22.85;100770.47;4782976;29;20047;-76
2024/03/12 10:55:51;;;;;;;4.43;2.33;;;;;;;14.55;23.42;100782.25;4783549;29;20058;-76
2024/03/12 10:58:17;;;;;;;4.80;2.42;;;;;;;13.52;23.77;100646.19;4787390;29;20047;-80
2024/03/12 11:00:44;;;;;;;2.55;1.95;;;;;;;13.67;23.88;100741.06;4772082;29;20158;-81
2024/03/12 11:03:13;;;;;;;5.68;2.10;;;;;;;13.03;24.23;100681.28;4800882;29;20051;-81
2024/03/12 11:05:42;;;;;;;6.00;2.22;;;;;;;13.15;24.76;100807.53;4806514;29;20145;-82
2024/03/12 11:08:13;;;;;;;5.85;2.00;;;;;;;11.87;25.04;100664.19;4803864;29;20119;-79
2024/03/12 11:10:42;;;;;;;;;;;;;;;12.01;25.40;100792.00;4802899;29;20043;-82
2024/03/12 11:13:08;;;;;;;6.22;1.90;;;;;;;11.38;26.00;100757.94;4811520;29;19925;-81
2024/03/12 11:15:35;;;;;;;5.28;1.80;;;;;;;10.83;26.56;100699.56;4802578;29;20042;-79
2024/03/12 11:18:02;;;;;;;4.07;1.67;;;;;;;11.24;26.61;100807.41;4759034;29;20189;-81
2024/03/12 11:20:31;;;;;;;3.17;1.98;;;;;;;10.71;26.94;100744.63;4806958;29;20050;-80
2024/03/12 11:23:10;;;;;;;5.20;2.38;;;;;;;9.83;27.48;100624.38;4798261;29;20047;-79
2024/03/12 11:28:23;;;;;;;2.90;1.73;;;;;;;10.49;27.68;100780.94;4787777;29;20075;-84
2024/03/12 11:31:03;;;;;;;2.53;2.00;;;;;;;9.31;27.98;100629.16;4791392;30;20111;-84
2024/03/12 11:33:46;;;;;;;3.95;2.70;;;;;;;10.12;28.22;100801.41;4793679;29;20043;-82
2024/03/12 11:36:22;;;;;;;2.83;1.80;;;;;;;9.82;28.52;100797.66;4771008;30;20047;-81
2024/03/12 11:38:51;;;;;;;5.28;1.83;;;;;;;9.06;29.14;100705.91;4779948;30;20043;-83
2024/03/12 11:41:19;;;;;;;2.70;2.10;;;;;;;9.50;29.39;100806.00;4778077;29;20055;-79
2024/03/12 11:43:46;;;;;;;6.45;2.05;;;;;;;9.36;29.27;100797.19;4799359;29;20035;-83
2024/03/12 11:46:16;;;;;;;2.85;1.92;;;;;;;8.86;29.78;100731.63;4782638;29;20055;-79